Riverside, March ARB Airport (KRIV)

NameMarch ARB Airport
CityRiverside
CountryUnited States
ICAOKRIV
IATA
Altitude468 m
CoordinatesGoogle Map
Live Air TrafficLiveATC.net
METARKRIV 201758Z AUTO 32005KT 10SM CLR 23/04 A2995 RMK AO2 SLP133 T02320042 10232 20071 51012
2019-10-20 17:58:00 Wind: Northwest (320°) 2.57 m/s - Visibility: 16093.4 m - Temperature: 23 °C - Dew point: 4 °C - Humidity: 29% - Pressure: 1014.22 hPa
Statistics

The table below shows the detailed information of all flights to/from Riverside, March ARB Airport (KRIV).